Back to Top

Language: 

My Weather Underground Personal Weather Station Historical Data with Graphs...

Delerius Weather Station Historical Data
Daily Summary for October 28, 2017 Units:  Metric    English   Both
« Previous Day
Next Day »
Daily Weekly Monthly Yearly Custom
  High: Low: Average:
Temperature: 14.6 °C 9.2 °C 12.3 °C
Dew Point: 12.3 °C 6.4 °C 10.3 °C
Humidity: 91 % 82 % 87 %
Wind Speed: 43.5 km/h 8 km/h 24.1 km/h
Wind Gust: 62.8 km/h - -
Wind:- - WNW
Pressure: 1030 hPa 1015.5 hPa -
Precipitation: 0 mm    
Historical Graphs
 
 
Tabular Data for October 28, 2017
Time Temperature Dew Point Pressure Wind Wind Speed Wind Gust Humidity Rainfall Rate (Hourly) solar Conditions
00:04 9.3 °C 6.4 °C 1030 hPa WNW 20.9 km/h 33.8 km/h 82 % 0 mm 0 W/m2
00:09 9.3 °C 6.4 °C 1029.7 hPa WNW 19.3 km/h 30.6 km/h 82 % 0 mm 0 W/m2
00:14 9.3 °C 6.4 °C 1029.7 hPa West 22.5 km/h 35.4 km/h 82 % 0 mm 0 W/m2
00:19 9.3 °C 6.4 °C 1029.7 hPa West 19.3 km/h 35.4 km/h 82 % 0 mm 0 W/m2
00:24 9.2 °C 6.4 °C 1029.7 hPa WNW 17.7 km/h 25.7 km/h 83 % 0 mm 0 W/m2
00:29 9.3 °C 6.6 °C 1029.3 hPa WNW 22.5 km/h 33.8 km/h 83 % 0 mm 0 W/m2
00:35 9.3 °C 6.6 °C 1029.7 hPa WNW 22.5 km/h 38.6 km/h 83 % 0 mm 0 W/m2
00:40 9.3 °C 6.6 °C 1029.7 hPa WNW 19.3 km/h 30.6 km/h 83 % 0 mm 0 W/m2
00:45 9.3 °C 6.6 °C 1029.7 hPa WNW 14.5 km/h 24.1 km/h 83 % 0 mm 0 W/m2
00:50 9.3 °C 6.6 °C 1029.3 hPa WNW 14.5 km/h 29 km/h 83 % 0 mm 0 W/m2
00:55 9.3 °C 6.7 °C 1029.3 hPa WNW 16.1 km/h 24.1 km/h 84 % 0 mm 0 W/m2
01:00 9.3 °C 6.7 °C 1029.3 hPa WNW 25.7 km/h 33.8 km/h 84 % 0 mm 0 W/m2
01:05 9.3 °C 6.7 °C 1029.3 hPa WNW 20.9 km/h 33.8 km/h 84 % 0 mm 0 W/m2
01:10 9.3 °C 6.7 °C 1029.7 hPa WNW 17.7 km/h 25.7 km/h 84 % 0 mm 0 W/m2
01:15 9.3 °C 6.7 °C 1029.3 hPa WNW 22.5 km/h 33.8 km/h 84 % 0 mm 0 W/m2
01:20 9.4 °C 7 °C 1029.3 hPa WNW 22.5 km/h 35.4 km/h 85 % 0 mm 0 W/m2
01:25 9.4 °C 7 °C 1029.3 hPa WNW 20.9 km/h 32.2 km/h 85 % 0 mm 0 W/m2
01:30 9.3 °C 6.9 °C 1029.3 hPa WNW 17.7 km/h 25.7 km/h 85 % 0 mm 0 W/m2
01:35 9.3 °C 6.9 °C 1029.3 hPa WNW 20.9 km/h 32.2 km/h 85 % 0 mm 0 W/m2
01:40 9.3 °C 6.9 °C 1029.3 hPa WNW 24.1 km/h 40.2 km/h 85 % 0 mm 0 W/m2
01:45 9.5 °C 7.1 °C 1029 hPa WNW 25.7 km/h 41.8 km/h 85 % 0 mm 0 W/m2
01:50 9.5 °C 7.1 °C 1029 hPa WNW 22.5 km/h 33.8 km/h 85 % 0 mm 0 W/m2
01:55 9.5 °C 7.1 °C 1029 hPa West 20.9 km/h 33.8 km/h 85 % 0 mm 0 W/m2
02:00 9.5 °C 7.1 °C 1028.7 hPa WNW 20.9 km/h 37 km/h 85 % 0 mm 0 W/m2
02:05 9.5 °C 7.1 °C 1028.7 hPa WNW 24.1 km/h 33.8 km/h 85 % 0 mm 0 W/m2
02:10 9.5 °C 7.1 °C 1028.7 hPa West 24.1 km/h 37 km/h 85 % 0 mm 0 W/m2
02:15 9.6 °C 7.2 °C 1028.7 hPa West 22.5 km/h 37 km/h 85 % 0 mm 0 W/m2
02:20 9.6 °C 7.2 °C 1028.3 hPa West 22.5 km/h 35.4 km/h 85 % 0 mm 0 W/m2
02:25 9.6 °C 7.2 °C 1028.3 hPa West 22.5 km/h 38.6 km/h 85 % 0 mm 0 W/m2
02:30 9.6 °C 7 °C 1028 hPa West 20.9 km/h 32.2 km/h 84 % 0 mm 0 W/m2
02:35 9.6 °C 7.2 °C 1028 hPa WNW 20.9 km/h 33.8 km/h 85 % 0 mm 0 W/m2
02:40 9.7 °C 7.1 °C 1028 hPa WNW 24.1 km/h 45.1 km/h 84 % 0 mm 0 W/m2
02:45 9.7 °C 7.1 °C 1028 hPa WNW 24.1 km/h 41.8 km/h 84 % 0 mm 0 W/m2
02:50 9.7 °C 7.1 °C 1028 hPa WNW 20.9 km/h 35.4 km/h 84 % 0 mm 0 W/m2
02:55 9.8 °C 7.2 °C 1028 hPa WNW 24.1 km/h 33.8 km/h 84 % 0 mm 0 W/m2
03:00 9.8 °C 7.2 °C 1028 hPa WNW 16.1 km/h 24.1 km/h 84 % 0 mm 0 W/m2
03:05 9.8 °C 7.2 °C 1027.7 hPa West 16.1 km/h 29 km/h 84 % 0 mm 0 W/m2
03:10 9.8 °C 7.2 °C 1027.7 hPa WNW 19.3 km/h 33.8 km/h 84 % 0 mm 0 W/m2
03:15 9.7 °C 7.1 °C 1027.3 hPa WNW 17.7 km/h 30.6 km/h 84 % 0 mm 0 W/m2
03:20 9.7 °C 7.1 °C 1027 hPa WNW 27.4 km/h 40.2 km/h 84 % 0 mm 0 W/m2
03:25 9.8 °C 7.2 °C 1027.3 hPa WNW 27.4 km/h 40.2 km/h 84 % 0 mm 0 W/m2
03:30 9.8 °C 7.1 °C 1027.3 hPa WNW 22.5 km/h 38.6 km/h 83 % 0 mm 0 W/m2
03:35 9.8 °C 7.1 °C 1027.3 hPa WNW 22.5 km/h 46.7 km/h 83 % 0 mm 0 W/m2
03:40 9.8 °C 7.1 °C 1027 hPa West 17.7 km/h 33.8 km/h 83 % 0 mm 0 W/m2
03:45 9.8 °C 7.2 °C 1027 hPa West 16.1 km/h 29 km/h 84 % 0 mm 0 W/m2
03:50 9.7 °C 7.1 °C 1027 hPa WNW 14.5 km/h 25.7 km/h 84 % 0 mm 0 W/m2
03:55 9.8 °C 7.2 °C 1027 hPa WNW 19.3 km/h 30.6 km/h 84 % 0 mm 0 W/m2
04:00 9.8 °C 7.2 °C 1027 hPa WNW 24.1 km/h 38.6 km/h 84 % 0 mm 0 W/m2
04:05 9.8 °C 7.1 °C 1027 hPa WNW 14.5 km/h 35.4 km/h 83 % 0 mm 0 W/m2
04:10 9.8 °C 7.2 °C 1026.6 hPa WNW 14.5 km/h 29 km/h 84 % 0 mm 0 W/m2
04:17 9.8 °C 7.2 °C 1026.6 hPa NW 17.7 km/h 25.7 km/h 84 % 0 mm 0 W/m2
04:21 9.8 °C 7.2 °C 1026.6 hPa NW 14.5 km/h 29 km/h 84 % 0 mm 0 W/m2
04:25 9.8 °C 7.2 °C 1026.6 hPa NNW 8 km/h 17.7 km/h 84 % 0 mm 0 W/m2
04:30 9.8 °C 7.1 °C 1026.6 hPa NW 8 km/h 16.1 km/h 83 % 0 mm 0 W/m2
04:35 9.8 °C 7.1 °C 1026.6 hPa NW 9.7 km/h 19.3 km/h 83 % 0 mm 0 W/m2
04:40 9.8 °C 7.1 °C 1026.6 hPa NW 14.5 km/h 25.7 km/h 83 % 0 mm 0 W/m2
04:45 9.8 °C 7.1 °C 1026.6 hPa NW 12.9 km/h 19.3 km/h 83 % 0 mm 0 W/m2
04:50 9.8 °C 6.9 °C 1026.6 hPa NW 11.3 km/h 17.7 km/h 82 % 0 mm 0 W/m2
04:55 9.8 °C 6.9 °C 1026.3 hPa WNW 11.3 km/h 17.7 km/h 82 % 0 mm 0 W/m2
05:00 9.7 °C 6.9 °C 1026.3 hPa NW 11.3 km/h 17.7 km/h 83 % 0 mm 0 W/m2
05:05 9.7 °C 6.9 °C 1026.3 hPa NW 14.5 km/h 25.7 km/h 83 % 0 mm 0 W/m2
05:10 9.8 °C 7.1 °C 1026 hPa WNW 17.7 km/h 29 km/h 83 % 0 mm 0 W/m2
05:15 9.8 °C 7.1 °C 1026.3 hPa NW 19.3 km/h 35.4 km/h 83 % 0 mm 0 W/m2
05:20 9.9 °C 7.2 °C 1026.3 hPa NW 17.7 km/h 25.7 km/h 83 % 0 mm 0 W/m2
05:25 9.9 °C 7.3 °C 1026 hPa NW 19.3 km/h 25.7 km/h 84 % 0 mm 0 W/m2
05:30 10 °C 7.6 °C 1026.3 hPa NW 19.3 km/h 32.2 km/h 85 % 0 mm 0 W/m2
05:35 10.1 °C 7.7 °C 1026.3 hPa WNW 19.3 km/h 29 km/h 85 % 0 mm 0 W/m2
05:40 10.1 °C 7.7 °C 1026.3 hPa WNW 17.7 km/h 30.6 km/h 85 % 0 mm 0 W/m2
05:45 10.2 °C 7.9 °C 1026.3 hPa WNW 24.1 km/h 33.8 km/h 86 % 0 mm 0 W/m2
05:50 10.3 °C 8.1 °C 1026 hPa WNW 17.7 km/h 29 km/h 86 % 0 mm 0 W/m2
05:55 10.3 °C 8.2 °C 1026 hPa WNW 12.9 km/h 20.9 km/h 87 % 0 mm 0 W/m2
06:00 10.3 °C 8.2 °C 1026 hPa WNW 19.3 km/h 32.2 km/h 87 % 0 mm 0 W/m2
06:05 10.3 °C 8.2 °C 1026 hPa WNW 16.1 km/h 32.2 km/h 87 % 0 mm 0 W/m2
06:10 10.3 °C 8.2 °C 1025.6 hPa WNW 22.5 km/h 37 km/h 87 % 0 mm 0 W/m2
06:15 10.3 °C 8.2 °C 1025.6 hPa WNW 22.5 km/h 41.8 km/h 87 % 0 mm 0 W/m2
06:20 10.4 °C 8.5 °C 1025.3 hPa WNW 29 km/h 43.5 km/h 88 % 0 mm 0 W/m2
06:26 10.4 °C 8.3 °C 1025.3 hPa WNW 29 km/h 41.8 km/h 87 % 0 mm 0 W/m2
06:31 10.4 °C 8.5 °C 1024.9 hPa WNW 30.6 km/h 48.3 km/h 88 % 0 mm 0 W/m2
06:36 10.4 °C 8.5 °C 1024.9 hPa West 27.4 km/h 45.1 km/h 88 % 0 mm 0 W/m2
06:41 10.5 °C 8.4 °C 1024.9 hPa West 29 km/h 41.8 km/h 87 % 0 mm 0 W/m2
06:46 10.6 °C 8.5 °C 1024.9 hPa WNW 24.1 km/h 37 km/h 87 % 0 mm 0 W/m2
06:51 10.6 °C 8.5 °C 1024.9 hPa West 22.5 km/h 40.2 km/h 87 % 0 mm 0 W/m2
06:56 10.6 °C 8.7 °C 1024.6 hPa West 22.5 km/h 35.4 km/h 88 % 0 mm 0 W/m2
07:01 10.6 °C 8.7 °C 1024.6 hPa West 20.9 km/h 32.2 km/h 88 % 0 mm 0 W/m2
07:06 10.5 °C 8.6 °C 1024.6 hPa WNW 17.7 km/h 32.2 km/h 88 % 0 mm 0 W/m2
07:11 10.5 °C 8.8 °C 1024.6 hPa WNW 19.3 km/h 40.2 km/h 89 % 0 mm 0 W/m2
07:16 10.5 °C 8.8 °C 1024.6 hPa WNW 17.7 km/h 33.8 km/h 89 % 0 mm 0 W/m2
07:21 10.4 °C 8.7 °C 1024.6 hPa WNW 19.3 km/h 32.2 km/h 89 % 0 mm 0 W/m2
07:26 10.4 °C 8.7 °C 1024.6 hPa WNW 19.3 km/h 35.4 km/h 89 % 0 mm 0 W/m2
07:31 10.4 °C 8.7 °C 1024.6 hPa WNW 17.7 km/h 32.2 km/h 89 % 0 mm 0 W/m2
07:36 10.4 °C 8.7 °C 1024.3 hPa WNW 20.9 km/h 41.8 km/h 89 % 0 mm 0 W/m2
07:41 10.4 °C 8.8 °C 1024.3 hPa West 24.1 km/h 38.6 km/h 90 % 0 mm 0 W/m2
07:46 10.5 °C 8.9 °C 1024.6 hPa WNW 27.4 km/h 45.1 km/h 90 % 0 mm 0 W/m2
07:51 10.5 °C 8.9 °C 1024.6 hPa WNW 29 km/h 48.3 km/h 90 % 0 mm 0 W/m2
07:56 10.6 °C 9 °C 1024.6 hPa WNW 29 km/h 40.2 km/h 90 % 0 mm 0 W/m2
08:01 10.6 °C 8.9 °C 1024.6 hPa WNW 25.7 km/h 35.4 km/h 89 % 0 mm 0 W/m2
08:06 10.7 °C 8.9 °C 1024.6 hPa West 20.9 km/h 37 km/h 89 % 0 mm 7 W/m2
08:11 10.7 °C 8.9 °C 1024.6 hPa West 22.5 km/h 35.4 km/h 89 % 0 mm 12 W/m2
08:16 10.7 °C 8.9 °C 1024.6 hPa West 17.7 km/h 25.7 km/h 89 % 0 mm 16 W/m2
08:21 10.8 °C 9.1 °C 1024.6 hPa West 19.3 km/h 37 km/h 89 % 0 mm 21 W/m2
08:26 10.8 °C 9.1 °C 1024.6 hPa West 19.3 km/h 30.6 km/h 89 % 0 mm 26 W/m2
08:31 10.8 °C 9.2 °C 1024.6 hPa West 16.1 km/h 22.5 km/h 90 % 0 mm 33 W/m2
08:36 10.9 °C 9.3 °C 1024.3 hPa West 16.1 km/h 29 km/h 90 % 0 mm 37 W/m2
08:41 11 °C 9.4 °C 1024.6 hPa West 17.7 km/h 29 km/h 90 % 0 mm 42 W/m2
08:46 11.2 °C 9.6 °C 1024.3 hPa West 16.1 km/h 24.1 km/h 90 % 0 mm 47 W/m2
08:51 11.3 °C 9.7 °C 1024.3 hPa West 17.7 km/h 30.6 km/h 90 % 0 mm 54 W/m2
08:56 11.3 °C 9.7 °C 1024.3 hPa West 19.3 km/h 35.4 km/h 90 % 0 mm 60 W/m2
09:01 11.4 °C 9.8 °C 1024.3 hPa West 16.1 km/h 25.7 km/h 90 % 0 mm 60 W/m2
09:06 11.6 °C 10 °C 1024.3 hPa West 22.5 km/h 33.8 km/h 90 % 0 mm 56 W/m2
09:11 11.6 °C 10 °C 1024.6 hPa West 19.3 km/h 33.8 km/h 90 % 0 mm 49 W/m2
09:16 11.7 °C 10.1 °C 1024.3 hPa West 19.3 km/h 29 km/h 90 % 0 mm 47 W/m2
09:22 11.8 °C 10.2 °C 1024.3 hPa West 14.5 km/h 24.1 km/h 90 % 0 mm 40 W/m2
09:27 11.9 °C 10.3 °C 1024.3 hPa West 16.1 km/h 25.7 km/h 90 % 0 mm 47 W/m2
09:32 12.1 °C 10.5 °C 1023.9 hPa West 22.5 km/h 37 km/h 90 % 0 mm 53 W/m2
09:37 12.3 °C 10.7 °C 1023.9 hPa West 25.7 km/h 40.2 km/h 90 % 0 mm 49 W/m2
09:42 12.6 °C 11 °C 1023.9 hPa West 22.5 km/h 33.8 km/h 90 % 0 mm 35 W/m2
09:47 12.7 °C 11.1 °C 1023.6 hPa WNW 24.1 km/h 38.6 km/h 90 % 0 mm 46 W/m2
09:52 12.7 °C 11.1 °C 1023.6 hPa West 14.5 km/h 32.2 km/h 90 % 0 mm 54 W/m2
09:57 12.7 °C 11.1 °C 1023.6 hPa West 24.1 km/h 43.5 km/h 90 % 0 mm 77 W/m2
10:02 12.8 °C 11.2 °C 1023.2 hPa West 30.6 km/h 45.1 km/h 90 % 0 mm 95 W/m2
10:07 13 °C 11.4 °C 1023.6 hPa WNW 30.6 km/h 48.3 km/h 90 % 0 mm 128 W/m2
10:12 13.1 °C 11.3 °C 1023.6 hPa West 19.3 km/h 30.6 km/h 89 % 0 mm 88 W/m2
10:17 13.1 °C 11.3 °C 1023.2 hPa West 20.9 km/h 30.6 km/h 89 % 0 mm 56 W/m2
10:22 13.2 °C 11.4 °C 1023.2 hPa West 25.7 km/h 38.6 km/h 89 % 0 mm 84 W/m2
10:27 13.2 °C 11.4 °C 1023.2 hPa WNW 17.7 km/h 32.2 km/h 89 % 0 mm 63 W/m2
10:32 13.3 °C 11.5 °C 1023.2 hPa WNW 17.7 km/h 33.8 km/h 89 % 0 mm 69 W/m2
10:37 13.3 °C 11.5 °C 1022.9 hPa West 25.7 km/h 40.2 km/h 89 % 0 mm 35 W/m2
10:42 13.3 °C 11.5 °C 1022.9 hPa West 22.5 km/h 35.4 km/h 89 % 0 mm 95 W/m2
10:47 13.3 °C 11.5 °C 1022.6 hPa West 24.1 km/h 41.8 km/h 89 % 0 mm 39 W/m2
10:52 13.4 °C 11.6 °C 1022.9 hPa WNW 19.3 km/h 29 km/h 89 % 0 mm 83 W/m2
10:57 13.4 °C 11.4 °C 1022.9 hPa West 17.7 km/h 30.6 km/h 88 % 0 mm 60 W/m2
11:02 13.4 °C 11.4 °C 1022.9 hPa West 17.7 km/h 32.2 km/h 88 % 0 mm 67 W/m2
11:07 13.4 °C 11.4 °C 1022.6 hPa West 22.5 km/h 38.6 km/h 88 % 0 mm 90 W/m2
11:12 13.5 °C 11.6 °C 1022.2 hPa West 25.7 km/h 43.5 km/h 88 % 0 mm 144 W/m2
11:17 13.6 °C 11.7 °C 1022.6 hPa West 24.1 km/h 35.4 km/h 88 % 0 mm 172 W/m2
11:22 13.7 °C 11.7 °C 1022.2 hPa WNW 20.9 km/h 35.4 km/h 88 % 0 mm 125 W/m2
11:27 13.8 °C 11.7 °C 1022.2 hPa WNW 14.5 km/h 22.5 km/h 87 % 0 mm 149 W/m2
11:32 13.8 °C 11.7 °C 1022.2 hPa West 25.7 km/h 41.8 km/h 87 % 0 mm 105 W/m2
11:37 13.9 °C 11.8 °C 1022.2 hPa WNW 20.9 km/h 35.4 km/h 87 % 0 mm 100 W/m2
11:42 13.9 °C 11.8 °C 1022.2 hPa WNW 25.7 km/h 40.2 km/h 87 % 0 mm 77 W/m2
11:47 13.8 °C 11.7 °C 1022.2 hPa WNW 22.5 km/h 38.6 km/h 87 % 0 mm 79 W/m2
11:52 13.8 °C 11.7 °C 1022.2 hPa WNW 25.7 km/h 38.6 km/h 87 % 0 mm 86 W/m2
11:57 13.8 °C 11.7 °C 1022.2 hPa West 17.7 km/h 33.8 km/h 87 % 0 mm 90 W/m2
12:02 13.8 °C 11.7 °C 1022.2 hPa WNW 22.5 km/h 40.2 km/h 87 % 0 mm 74 W/m2
12:07 13.8 °C 11.7 °C 1021.9 hPa WNW 27.4 km/h 43.5 km/h 87 % 0 mm 79 W/m2
12:12 13.7 °C 11.6 °C 1022.2 hPa WNW 29 km/h 49.9 km/h 87 % 0 mm 91 W/m2
12:18 13.7 °C 11.7 °C 1021.9 hPa WNW 24.1 km/h 40.2 km/h 88 % 0 mm 83 W/m2
12:23 13.7 °C 11.7 °C 1021.9 hPa WNW 22.5 km/h 37 km/h 88 % 0 mm 134 W/m2
12:28 13.7 °C 11.7 °C 1021.9 hPa WNW 25.7 km/h 43.5 km/h 88 % 0 mm 100 W/m2
12:33 13.7 °C 11.9 °C 1021.6 hPa WNW 29 km/h 49.9 km/h 89 % 0 mm 172 W/m2
12:38 13.8 °C 12 °C 1021.6 hPa WNW 25.7 km/h 40.2 km/h 89 % 0 mm 158 W/m2
12:43 13.8 °C 12 °C 1021.6 hPa WNW 22.5 km/h 40.2 km/h 89 % 0 mm 193 W/m2
12:48 13.8 °C 11.8 °C 1021.6 hPa WNW 29 km/h 46.7 km/h 88 % 0 mm 227 W/m2
12:53 13.9 °C 11.9 °C 1021.9 hPa WNW 24.1 km/h 33.8 km/h 88 % 0 mm 105 W/m2
12:58 13.9 °C 11.9 °C 1021.6 hPa WNW 27.4 km/h 38.6 km/h 88 % 0 mm 227 W/m2
13:03 14.1 °C 11.9 °C 1021.6 hPa WNW 22.5 km/h 37 km/h 87 % 0 mm 218 W/m2
13:08 14.1 °C 11.9 °C 1021.6 hPa WNW 29 km/h 40.2 km/h 87 % 0 mm 207 W/m2
13:13 14.3 °C 12.2 °C 1021.2 hPa WNW 25.7 km/h 33.8 km/h 87 % 0 mm 169 W/m2
13:18 14.4 °C 12.1 °C 1021.2 hPa WNW 27.4 km/h 41.8 km/h 86 % 0 mm 181 W/m2
13:23 14.5 °C 12 °C 1021.2 hPa WNW 29 km/h 43.5 km/h 85 % 0 mm 318 W/m2
13:28 14.5 °C 11.8 °C 1020.9 hPa WNW 33.8 km/h 48.3 km/h 84 % 0 mm 141 W/m2
13:33 14.4 °C 11.7 °C 1020.5 hPa West 30.6 km/h 41.8 km/h 84 % 0 mm 132 W/m2
13:39 14.3 °C 11.6 °C 1020.5 hPa West 29 km/h 45.1 km/h 84 % 0 mm 148 W/m2
13:44 14.3 °C 11.8 °C 1020.5 hPa WNW 25.7 km/h 37 km/h 85 % 0 mm 163 W/m2
13:49 14.3 °C 11.8 °C 1020.5 hPa WNW 24.1 km/h 40.2 km/h 85 % 0 mm 193 W/m2
13:54 14.4 °C 11.7 °C 1020.2 hPa WNW 25.7 km/h 49.9 km/h 84 % 0 mm 204 W/m2
13:59 14.5 °C 11.8 °C 1020.5 hPa WNW 24.1 km/h 38.6 km/h 84 % 0 mm 183 W/m2
14:04 14.5 °C 11.8 °C 1020.2 hPa WNW 24.1 km/h 37 km/h 84 % 0 mm 265 W/m2
14:09 14.5 °C 11.8 °C 1019.9 hPa WNW 32.2 km/h 46.7 km/h 84 % 0 mm 174 W/m2
14:14 14.5 °C 11.8 °C 1019.9 hPa WNW 30.6 km/h 45.1 km/h 84 % 0 mm 167 W/m2
14:19 14.5 °C 11.8 °C 1019.9 hPa West 30.6 km/h 51.5 km/h 84 % 0 mm 167 W/m2
14:24 14.5 °C 11.8 °C 1019.9 hPa West 22.5 km/h 41.8 km/h 84 % 0 mm 158 W/m2
14:29 14.5 °C 11.8 °C 1019.9 hPa West 24.1 km/h 40.2 km/h 84 % 0 mm 139 W/m2
14:34 14.5 °C 11.8 °C 1019.9 hPa WNW 27.4 km/h 40.2 km/h 84 % 0 mm 149 W/m2
14:39 14.5 °C 11.8 °C 1019.9 hPa West 25.7 km/h 40.2 km/h 84 % 0 mm 204 W/m2
14:44 14.6 °C 11.9 °C 1019.9 hPa West 27.4 km/h 45.1 km/h 84 % 0 mm 181 W/m2
14:49 14.6 °C 11.7 °C 1019.9 hPa West 30.6 km/h 41.8 km/h 83 % 0 mm 91 W/m2
14:54 14.5 °C 11.8 °C 1019.9 hPa West 24.1 km/h 37 km/h 84 % 0 mm 65 W/m2
14:59 14.4 °C 11.7 °C 1019.9 hPa West 22.5 km/h 43.5 km/h 84 % 0 mm 58 W/m2
15:04 14.3 °C 11.6 °C 1019.5 hPa West 20.9 km/h 38.6 km/h 84 % 0 mm 81 W/m2
15:09 14.3 °C 11.6 °C 1019.5 hPa West 19.3 km/h 32.2 km/h 84 % 0 mm 63 W/m2
15:14 14.3 °C 11.6 °C 1019.2 hPa West 25.7 km/h 43.5 km/h 84 % 0 mm 60 W/m2
15:19 14.3 °C 11.6 °C 1019.2 hPa West 22.5 km/h 40.2 km/h 84 % 0 mm 70 W/m2
15:24 14.3 °C 11.8 °C 1019.2 hPa West 30.6 km/h 46.7 km/h 85 % 0 mm 77 W/m2
15:29 14.3 °C 11.8 °C 1018.8 hPa West 24.1 km/h 40.2 km/h 85 % 0 mm 90 W/m2
15:34 14.3 °C 11.8 °C 1018.8 hPa West 25.7 km/h 43.5 km/h 85 % 0 mm 88 W/m2
15:39 14.3 °C 11.8 °C 1018.8 hPa West 24.1 km/h 45.1 km/h 85 % 0 mm 79 W/m2
15:45 14.3 °C 11.8 °C 1018.8 hPa West 25.7 km/h 38.6 km/h 85 % 0 mm 67 W/m2
15:50 14.3 °C 11.8 °C 1018.8 hPa West 24.1 km/h 41.8 km/h 85 % 0 mm 56 W/m2
15:55 14.3 °C 11.8 °C 1018.8 hPa WNW 29 km/h 45.1 km/h 85 % 0 mm 49 W/m2
16:00 14.2 °C 11.7 °C 1018.8 hPa WNW 24.1 km/h 40.2 km/h 85 % 0 mm 40 W/m2
16:05 14.2 °C 11.7 °C 1018.8 hPa West 24.1 km/h 41.8 km/h 85 % 0 mm 37 W/m2
16:10 14.2 °C 11.7 °C 1018.8 hPa WNW 27.4 km/h 45.1 km/h 85 % 0 mm 23 W/m2
16:15 14.2 °C 11.7 °C 1018.8 hPa WNW 24.1 km/h 41.8 km/h 85 % 0 mm 12 W/m2
16:20 14.2 °C 11.9 °C 1018.8 hPa WNW 29 km/h 49.9 km/h 86 % 0 mm 16 W/m2
16:25 14.1 °C 11.8 °C 1018.8 hPa West 30.6 km/h 46.7 km/h 86 % 0 mm 19 W/m2
16:30 14.1 °C 11.9 °C 1018.8 hPa WNW 27.4 km/h 45.1 km/h 87 % 0 mm 30 W/m2
16:35 14 °C 11.9 °C 1018.8 hPa WNW 27.4 km/h 41.8 km/h 87 % 0 mm 19 W/m2
16:40 14 °C 12.1 °C 1018.8 hPa WNW 22.5 km/h 37 km/h 88 % 0 mm 23 W/m2
16:45 14 °C 12.1 °C 1018.8 hPa WNW 25.7 km/h 46.7 km/h 88 % 0 mm 18 W/m2
16:50 14.1 °C 11.9 °C 1018.8 hPa WNW 24.1 km/h 45.1 km/h 87 % 0 mm 12 W/m2
16:55 14.1 °C 11.9 °C 1018.8 hPa West 17.7 km/h 40.2 km/h 87 % 0 mm 12 W/m2
17:00 14.1 °C 12.2 °C 1018.8 hPa WNW 19.3 km/h 37 km/h 88 % 0 mm 16 W/m2
17:05 14 °C 12.1 °C 1018.5 hPa WNW 16.1 km/h 24.1 km/h 88 % 0 mm 16 W/m2
17:10 14 °C 12.1 °C 1018.5 hPa WNW 25.7 km/h 43.5 km/h 88 % 0 mm 9 W/m2
17:15 14.1 °C 12.2 °C 1018.5 hPa WNW 20.9 km/h 35.4 km/h 88 % 0 mm 7 W/m2
17:20 14.1 °C 12.2 °C 1018.5 hPa WNW 25.7 km/h 38.6 km/h 88 % 0 mm 5 W/m2
17:25 14.1 °C 12.2 °C 1018.5 hPa West 27.4 km/h 45.1 km/h 88 % 0 mm 0 W/m2
17:30 14.1 °C 12.2 °C 1018.5 hPa WNW 22.5 km/h 37 km/h 88 % 0 mm 0 W/m2
17:35 14.1 °C 12.2 °C 1018.5 hPa WNW 27.4 km/h 43.5 km/h 88 % 0 mm 0 W/m2
17:40 14.2 °C 12.2 °C 1018.5 hPa WNW 22.5 km/h 37 km/h 88 % 0 mm 0 W/m2
17:45 14.1 °C 12.2 °C 1018.2 hPa WNW 30.6 km/h 48.3 km/h 88 % 0 mm 5 W/m2
17:50 14.1 °C 12.2 °C 1018.5 hPa WNW 30.6 km/h 48.3 km/h 88 % 0 mm 0 W/m2
17:55 14.1 °C 12.3 °C 1018.2 hPa WNW 32.2 km/h 45.1 km/h 89 % 0 mm 0 W/m2
18:00 14.1 °C 12.3 °C 1018.5 hPa WNW 33.8 km/h 53.1 km/h 89 % 0 mm 0 W/m2
18:01 14.1 °C 12.3 °C 1018.2 hPa WNW 33.8 km/h 53.1 km/h 89 % 0 mm 0 W/m2
18:06 14.1 °C 12.3 °C 1018.2 hPa WNW 22.5 km/h 37 km/h 89 % 0 mm 0 W/m2
18:11 14 °C 12.2 °C 1018.2 hPa West 29 km/h 45.1 km/h 89 % 0 mm 0 W/m2
18:16 13.9 °C 12.1 °C 1017.8 hPa West 30.6 km/h 48.3 km/h 89 % 0 mm 0 W/m2
18:21 13.9 °C 12.1 °C 1017.8 hPa West 27.4 km/h 48.3 km/h 89 % 0 mm 0 W/m2
18:26 13.9 °C 12.3 °C 1017.8 hPa West 38.6 km/h 49.9 km/h 90 % 0 mm 0 W/m2
18:31 13.9 °C 12.3 °C 1017.5 hPa WNW 27.4 km/h 51.5 km/h 90 % 0 mm 0 W/m2
18:36 13.8 °C 12.2 °C 1017.5 hPa WNW 30.6 km/h 46.7 km/h 90 % 0 mm 0 W/m2
18:41 13.8 °C 12.2 °C 1017.5 hPa West 30.6 km/h 41.8 km/h 90 % 0 mm 0 W/m2
18:46 13.8 °C 12.2 °C 1017.8 hPa WNW 27.4 km/h 45.1 km/h 90 % 0 mm 0 W/m2
18:51 13.8 °C 12.2 °C 1017.5 hPa WNW 30.6 km/h 43.5 km/h 90 % 0 mm 0 W/m2
18:56 13.8 °C 12.2 °C 1017.8 hPa WNW 24.1 km/h 40.2 km/h 90 % 0 mm 0 W/m2
19:01 13.8 °C 12.2 °C 1017.5 hPa WNW 27.4 km/h 49.9 km/h 90 % 0 mm 0 W/m2
19:06 13.8 °C 12.2 °C 1017.5 hPa WNW 24.1 km/h 40.2 km/h 90 % 0 mm 0 W/m2
19:11 13.8 °C 12.2 °C 1017.5 hPa West 32.2 km/h 53.1 km/h 90 % 0 mm 0 W/m2
19:16 13.8 °C 12.3 °C 1017.5 hPa WNW 35.4 km/h 51.5 km/h 91 % 0 mm 0 W/m2
19:21 13.8 °C 12.3 °C 1017.5 hPa West 38.6 km/h 62.8 km/h 91 % 0 mm 0 W/m2
19:26 13.7 °C 12.3 °C 1017.5 hPa WNW 35.4 km/h 53.1 km/h 91 % 0 mm 0 W/m2
19:31 13.8 °C 12.3 °C 1017.5 hPa WNW 29 km/h 48.3 km/h 91 % 0 mm 0 W/m2
19:36 13.8 °C 12.3 °C 1017.5 hPa WNW 33.8 km/h 51.5 km/h 91 % 0 mm 0 W/m2
19:41 13.8 °C 12.2 °C 1017.5 hPa WNW 38.6 km/h 56.3 km/h 90 % 0 mm 0 W/m2
19:46 13.8 °C 12.2 °C 1017.5 hPa WNW 32.2 km/h 51.5 km/h 90 % 0 mm 0 W/m2
19:51 13.8 °C 12.2 °C 1017.8 hPa WNW 43.5 km/h 59.5 km/h 90 % 0 mm 0 W/m2
19:56 13.7 °C 12.1 °C 1017.8 hPa WNW 30.6 km/h 46.7 km/h 90 % 0 mm 0 W/m2
20:01 13.7 °C 12.1 °C 1017.5 hPa WNW 32.2 km/h 51.5 km/h 90 % 0 mm 0 W/m2
20:06 13.7 °C 12.1 °C 1017.8 hPa WNW 29 km/h 49.9 km/h 90 % 0 mm 0 W/m2
20:11 13.7 °C 12.3 °C 1017.8 hPa WNW 32.2 km/h 46.7 km/h 91 % 0 mm 0 W/m2
20:16 13.7 °C 12.3 °C 1017.5 hPa WNW 33.8 km/h 49.9 km/h 91 % 0 mm 0 W/m2
20:21 13.7 °C 12.3 °C 1017.8 hPa WNW 33.8 km/h 48.3 km/h 91 % 0 mm 0 W/m2
20:26 13.6 °C 12.2 °C 1017.5 hPa WNW 37 km/h 53.1 km/h 91 % 0 mm 0 W/m2
20:31 13.6 °C 12.2 °C 1017.5 hPa WNW 32.2 km/h 51.5 km/h 91 % 0 mm 0 W/m2
20:36 13.6 °C 12.2 °C 1017.5 hPa WNW 32.2 km/h 51.5 km/h 91 % 0 mm 0 W/m2
20:41 13.6 °C 12.2 °C 1017.5 hPa WNW 35.4 km/h 51.5 km/h 91 % 0 mm 0 W/m2
20:46 13.6 °C 12.2 °C 1017.2 hPa WNW 29 km/h 40.2 km/h 91 % 0 mm 0 W/m2
20:52 13.6 °C 12.2 °C 1017.2 hPa West 29 km/h 46.7 km/h 91 % 0 mm 0 W/m2
20:57 13.6 °C 12 °C 1016.8 hPa WNW 32.2 km/h 49.9 km/h 90 % 0 mm 0 W/m2
21:02 13.6 °C 12 °C 1016.8 hPa West 29 km/h 40.2 km/h 90 % 0 mm 0 W/m2
21:07 13.7 °C 12.1 °C 1016.8 hPa West 32.2 km/h 45.1 km/h 90 % 0 mm 0 W/m2
21:12 13.7 °C 12.1 °C 1016.8 hPa West 30.6 km/h 41.8 km/h 90 % 0 mm 0 W/m2
21:17 13.7 °C 12.1 °C 1016.8 hPa WNW 30.6 km/h 48.3 km/h 90 % 0 mm 0 W/m2
21:22 13.7 °C 12.1 °C 1016.8 hPa WNW 29 km/h 45.1 km/h 90 % 0 mm 0 W/m2
21:27 13.7 °C 11.9 °C 1016.8 hPa WNW 30.6 km/h 45.1 km/h 89 % 0 mm 0 W/m2
21:32 13.7 °C 11.9 °C 1016.8 hPa WNW 30.6 km/h 43.5 km/h 89 % 0 mm 0 W/m2
21:37 13.7 °C 11.9 °C 1016.8 hPa West 32.2 km/h 49.9 km/h 89 % 0 mm 0 W/m2
21:42 13.7 °C 12.1 °C 1016.8 hPa WNW 25.7 km/h 40.2 km/h 90 % 0 mm 0 W/m2
21:47 13.6 °C 12 °C 1016.8 hPa WNW 29 km/h 40.2 km/h 90 % 0 mm 0 W/m2
21:52 13.6 °C 12 °C 1016.5 hPa WNW 29 km/h 54.7 km/h 90 % 0 mm 0 W/m2
21:57 13.6 °C 12 °C 1016.5 hPa West 35.4 km/h 57.9 km/h 90 % 0 mm 0 W/m2
22:02 13.5 °C 11.9 °C 1016.5 hPa West 29 km/h 46.7 km/h 90 % 0 mm 0 W/m2
22:07 13.4 °C 11.8 °C 1016.5 hPa West 24.1 km/h 41.8 km/h 90 % 0 mm 0 W/m2
22:12 13.4 °C 11.8 °C 1016.5 hPa West 29 km/h 48.3 km/h 90 % 0 mm 0 W/m2
22:17 13.4 °C 11.8 °C 1016.5 hPa WNW 25.7 km/h 43.5 km/h 90 % 0 mm 0 W/m2
22:22 13.4 °C 11.8 °C 1016.5 hPa West 19.3 km/h 35.4 km/h 90 % 0 mm 0 W/m2
22:27 13.4 °C 11.8 °C 1016.1 hPa WNW 29 km/h 49.9 km/h 90 % 0 mm 0 W/m2
22:32 13.4 °C 11.6 °C 1016.1 hPa West 22.5 km/h 38.6 km/h 89 % 0 mm 0 W/m2
22:34 13.4 °C 11.6 °C 1015.8 hPa West 24.1 km/h 37 km/h 89 % 0 mm 0 W/m2
22:39 13.5 °C 11.7 °C 1015.8 hPa West 32.2 km/h 51.5 km/h 89 % 0 mm 0 W/m2
22:44 13.6 °C 11.8 °C 1015.8 hPa WNW 25.7 km/h 46.7 km/h 89 % 0 mm 0 W/m2
22:49 13.6 °C 11.8 °C 1015.8 hPa WNW 30.6 km/h 49.9 km/h 89 % 0 mm 0 W/m2
22:54 13.7 °C 11.9 °C 1015.8 hPa West 25.7 km/h 48.3 km/h 89 % 0 mm 0 W/m2
22:59 13.8 °C 12 °C 1015.8 hPa West 29 km/h 46.7 km/h 89 % 0 mm 0 W/m2
23:04 13.7 °C 11.9 °C 1015.8 hPa West 24.1 km/h 37 km/h 89 % 0 mm 0 W/m2
23:09 13.7 °C 11.9 °C 1016.1 hPa WNW 24.1 km/h 38.6 km/h 89 % 0 mm 0 W/m2
23:14 13.7 °C 11.9 °C 1016.1 hPa WNW 20.9 km/h 38.6 km/h 89 % 0 mm 0 W/m2
23:19 13.7 °C 11.9 °C 1015.8 hPa West 27.4 km/h 43.5 km/h 89 % 0 mm 0 W/m2
23:24 13.7 °C 11.9 °C 1015.8 hPa West 32.2 km/h 51.5 km/h 89 % 0 mm 0 W/m2
23:29 13.7 °C 11.9 °C 1015.8 hPa West 27.4 km/h 45.1 km/h 89 % 0 mm 0 W/m2
23:34 13.7 °C 11.9 °C 1015.8 hPa West 30.6 km/h 46.7 km/h 89 % 0 mm 0 W/m2
23:39 13.8 °C 12 °C 1015.8 hPa West 24.1 km/h 40.2 km/h 89 % 0 mm 0 W/m2
23:44 13.8 °C 12 °C 1015.8 hPa WNW 29 km/h 54.7 km/h 89 % 0 mm 0 W/m2
23:49 13.9 °C 12.1 °C 1015.8 hPa WNW 24.1 km/h 38.6 km/h 89 % 0 mm 0 W/m2
23:54 13.9 °C 12.1 °C 1015.5 hPa WNW 27.4 km/h 46.7 km/h 89 % 0 mm 0 W/m2
23:59 13.9 °C 11.9 °C 1015.5 hPa WNW 25.7 km/h 41.8 km/h 88 % 0 mm 0 W/m2
Delerius-Weather
Compliments of Weather Underground - 2.25 mb

Data updates at regular intervals.